Time;durP1;ratioP1;P1;durP2;ratioP2;P2;SDS_P1;SDS_P2;PMS_P1;PMS_P2;Temp;Humidity;BMP_temperature;BMP_pressure;BME280_temperature;BME280_humidity;BME280_pressure;Samples;Min_cycle;Max_cycle;Signal;HPM_P1;HPM_P2
2022/03/23 00:00:50;;;;;;;115.10;52.67;;;6.00;99.90;;;;;;5035830;28;20041;-77
2022/03/23 00:03:16;;;;;;;117.60;59.05;;;6.00;99.90;;;;;;5035248;28;20046;-77
2022/03/23 00:05:42;;;;;;;117.18;58.85;;;6.10;99.90;;;;;;5017743;28;20041;-77
2022/03/23 00:08:08;;;;;;;118.55;58.10;;;6.00;99.90;;;;;;5033493;28;20091;-77
2022/03/23 00:10:34;;;;;;;122.43;60.58;;;6.00;99.90;;;;;;5015692;28;20042;-78
2022/03/23 00:13:01;;;;;;;119.70;58.30;;;5.90;99.90;;;;;;5016495;28;20121;-78
2022/03/23 00:15:29;;;;;;;126.68;61.60;;;5.90;99.90;;;;;;5035597;28;20113;-78
2022/03/23 00:17:55;;;;;;;129.90;61.70;;;5.90;99.90;;;;;;5034375;28;20160;-78
2022/03/23 00:20:21;;;;;;;134.85;66.55;;;6.00;99.90;;;;;;5014497;28;20062;-78
2022/03/23 00:22:47;;;;;;;134.43;63.80;;;5.90;99.90;;;;;;5015860;28;20477;-77
2022/03/23 00:25:14;;;;;;;135.95;63.63;;;5.90;99.90;;;;;;5015580;28;20041;-78
2022/03/23 00:27:40;;;;;;;136.13;62.35;;;5.90;99.90;;;;;;5014882;28;20058;-78
2022/03/23 00:30:06;;;;;;;132.70;63.17;;;5.80;99.90;;;;;;5032521;28;20045;-77
2022/03/23 00:32:32;;;;;;;129.48;63.88;;;5.70;99.90;;;;;;5033602;28;20443;-77
2022/03/23 00:34:58;;;;;;;124.03;58.33;;;5.70;99.90;;;;;;5015470;28;20196;-77
2022/03/23 00:37:24;;;;;;;132.20;63.17;;;5.70;99.90;;;;;;5015144;28;20038;-77
2022/03/23 00:39:50;;;;;;;129.73;59.80;;;5.60;99.90;;;;;;5030211;28;20041;-78
2022/03/23 00:42:16;;;;;;;135.73;62.95;;;5.60;99.90;;;;;;5035216;28;20050;-77
2022/03/23 00:44:42;;;;;;;143.73;67.13;;;5.50;99.90;;;;;;5034602;28;20049;-77
2022/03/23 00:47:08;;;;;;;129.40;62.03;;;6.00;99.90;;;;;;5034980;28;20112;-78
2022/03/23 00:49:36;;;;;;;123.13;59.70;;;5.40;99.90;;;;;;5022609;28;20129;-77
2022/03/23 00:52:02;;;;;;;120.00;59.10;;;5.30;99.90;;;;;;5015137;28;20042;-77
2022/03/23 00:54:28;;;;;;;119.30;56.95;;;5.20;99.90;;;;;;5028511;28;20045;-77
2022/03/23 00:56:53;;;;;;;128.40;59.47;;;5.10;99.90;;;;;;5034865;28;20041;-78
2022/03/23 00:59:19;;;;;;;114.05;52.10;;;5.10;99.90;;;;;;5033222;28;20385;-78
2022/03/23 01:01:45;;;;;;;127.57;58.00;;;5.30;99.90;;;;;;5034041;28;20064;-77
2022/03/23 01:04:12;;;;;;;128.85;55.08;;;4.80;99.90;;;;;;5034511;28;20038;-78
2022/03/23 01:06:37;;;;;;;133.13;62.05;;;4.80;99.90;;;;;;5035895;28;20049;-78
2022/03/23 01:09:03;;;;;;;132.15;60.40;;;5.00;99.90;;;;;;5036863;28;20041;-77
2022/03/23 01:11:29;;;;;;;137.98;64.35;;;5.10;99.90;;;;;;5036735;28;20068;-76
2022/03/23 01:13:54;;;;;;;142.20;66.88;;;5.10;99.90;;;;;;5028350;28;20041;-78
2022/03/23 01:16:20;;;;;;;128.13;57.30;;;5.20;99.90;;;;;;5016513;28;20038;-78
2022/03/23 01:18:45;;;;;;;138.75;61.03;;;5.00;99.90;;;;;;5016827;28;20045;-78
2022/03/23 01:21:13;;;;;;;155.20;64.82;;;4.80;99.90;;;;;;5017352;28;20108;-78
2022/03/23 01:23:39;;;;;;;161.35;68.68;;;4.70;99.90;;;;;;5022326;28;20100;-77
2022/03/23 01:26:05;;;;;;;153.75;67.30;;;4.80;99.90;;;;;;5036803;28;20084;-78
2022/03/23 01:28:31;;;;;;;160.88;66.13;;;4.90;99.90;;;;;;5034981;28;20041;-78
2022/03/23 01:30:57;;;;;;;160.60;70.28;;;4.80;99.90;;;;;;5032424;28;20041;-77
2022/03/23 01:33:22;;;;;;;155.02;71.68;;;4.90;99.90;;;;;;5031467;28;20042;-76
2022/03/23 01:35:48;;;;;;;158.73;70.85;;;4.90;99.90;;;;;;5014461;28;20184;-76
2022/03/23 01:38:14;;;;;;;176.52;73.47;;;5.00;99.90;;;;;;5014855;28;20037;-76
2022/03/23 01:40:39;;;;;;;177.50;72.97;;;5.30;99.90;;;;;;5016531;28;20361;-76
2022/03/23 01:43:05;;;;;;;159.25;69.93;;;5.30;99.90;;;;;;5019124;28;20473;-77
2022/03/23 01:45:31;;;;;;;158.35;68.07;;;5.30;99.90;;;;;;5018602;28;20062;-76
2022/03/23 01:47:56;;;;;;;165.60;72.28;;;5.10;99.90;;;;;;5018052;28;20506;-77
2022/03/23 01:50:22;;;;;;;173.02;72.95;;;5.00;99.90;;;;;;5018669;28;20378;-76
2022/03/23 01:52:48;;;;;;;172.68;72.43;;;4.90;99.90;;;;;;5018616;28;20042;-76
2022/03/23 01:55:14;;;;;;;170.40;73.80;;;4.80;99.90;;;;;;5018430;28;20060;-76
2022/03/23 01:57:43;;;;;;;183.68;74.97;;;4.70;99.90;;;;;;5018366;28;20091;-77
2022/03/23 02:00:11;;;;;;;173.38;72.85;;;4.60;99.90;;;;;;5018769;28;20538;-76
2022/03/23 02:02:36;;;;;;;165.10;71.15;;;4.50;99.90;;;;;;5019128;28;20042;-77
2022/03/23 02:05:03;;;;;;;157.40;69.82;;;4.60;99.90;;;;;;5018568;28;20042;-76
2022/03/23 02:07:30;;;;;;;152.98;61.15;;;4.60;99.90;;;;;;5017868;28;20046;-76
2022/03/23 02:09:56;;;;;;;169.52;70.35;;;4.40;99.90;;;;;;5018363;28;20448;-76
2022/03/23 02:12:21;;;;;;;172.73;71.63;;;4.30;99.90;;;;;;5017965;28;20049;-77
2022/03/23 02:14:48;;;;;;;168.45;69.30;;;4.20;99.90;;;;;;5018950;28;20053;-77
2022/03/23 02:17:53;;;;;;;176.88;74.05;;;4.30;99.90;;;;;;5018072;28;20488;-77
2022/03/23 02:20:19;;;;;;;170.23;70.20;;;4.40;99.90;;;;;;5017982;28;20049;-77
2022/03/23 02:22:45;;;;;;;174.30;70.22;;;4.30;99.90;;;;;;5018133;28;20184;-77
2022/03/23 02:25:10;;;;;;;165.15;68.40;;;4.30;99.90;;;;;;5034369;28;20547;-77
2022/03/23 02:27:38;;;;;;;174.38;72.15;;;4.20;99.90;;;;;;5037811;28;20060;-76
2022/03/23 02:30:08;;;;;;;176.13;66.97;;;4.20;99.90;;;;;;5022857;28;20396;-76
2022/03/23 02:32:35;;;;;;;175.80;71.40;;;4.00;99.90;;;;;;5018079;28;20038;-77
2022/03/23 02:35:01;;;;;;;176.52;71.18;;;4.00;99.90;;;;;;5018661;28;20050;-77
2022/03/23 02:37:26;;;;;;;182.18;69.53;;;4.00;99.90;;;;;;5017510;28;20048;-76
2022/03/23 02:39:52;;;;;;;176.77;68.82;;;4.30;99.90;;;;;;5017568;28;20416;-77
2022/03/23 02:42:18;;;;;;;176.38;71.70;;;3.80;99.90;;;;;;5016813;28;20042;-77
2022/03/23 02:44:43;;;;;;;180.40;71.70;;;3.80;99.90;;;;;;5016895;28;20580;-77
2022/03/23 02:47:09;;;;;;;157.80;68.47;;;3.70;99.90;;;;;;5030523;28;20042;-76
2022/03/23 02:49:35;;;;;;;194.90;76.07;;;3.60;99.90;;;;;;5037349;28;20044;-78
2022/03/23 02:52:01;;;;;;;168.40;69.07;;;3.60;99.90;;;;;;5025813;28;20230;-76
2022/03/23 03:03:26;;;;;;;153.07;62.90;;;3.30;99.90;;;;;;5037221;28;20469;-76
2022/03/23 03:05:52;;;;;;;162.98;64.20;;;3.10;99.90;;;;;;5019196;28;20076;-76
2022/03/23 03:11:01;;;;;;;173.57;69.78;;;3.10;99.90;;;;;;5019866;28;20073;-76
2022/03/23 03:13:29;;;;;;;180.75;71.38;;;3.50;99.90;;;;;;5037065;28;20033;-77
2022/03/23 03:16:00;;;;;;;189.73;71.78;;;3.10;99.90;;;;;;5035742;28;20060;-76
2022/03/23 03:18:26;;;;;;;163.23;68.38;;;3.10;99.90;;;;;;5036188;28;20044;-76
2022/03/23 03:20:51;;;;;;;169.13;67.85;;;3.00;99.90;;;;;;5034911;28;20045;-75
2022/03/23 03:23:17;;;;;;;176.30;69.25;;;3.30;99.90;;;;;;5016564;28;20041;-76
2022/03/23 03:25:42;;;;;;;172.77;68.82;;;3.00;99.90;;;;;;5032284;28;20046;-77
2022/03/23 03:28:08;;;;;;;195.10;80.95;;;3.00;99.90;;;;;;5036712;28;20041;-77
2022/03/23 03:30:34;;;;;;;208.77;75.40;;;3.00;99.90;;;;;;5036389;28;20041;-77
2022/03/23 03:32:59;;;;;;;183.50;71.00;;;3.10;99.90;;;;;;5016256;28;20129;-77
2022/03/23 03:35:25;;;;;;;208.20;74.18;;;3.10;99.90;;;;;;5016575;28;20411;-76
2022/03/23 03:37:50;;;;;;;208.82;74.50;;;3.00;99.90;;;;;;5015056;28;20049;-77
2022/03/23 03:40:16;;;;;;;192.82;72.63;;;2.90;99.90;;;;;;5015183;28;20065;-76
2022/03/23 03:42:41;;;;;;;180.40;73.30;;;2.80;99.90;;;;;;5016539;28;20042;-76
2022/03/23 03:45:08;;;;;;;194.60;72.72;;;2.70;99.90;;;;;;5028883;28;20053;-76
2022/03/23 03:47:33;;;;;;;185.32;68.28;;;2.70;99.90;;;;;;5036246;28;20099;-76
2022/03/23 03:50:00;;;;;;;190.25;73.82;;;2.60;99.90;;;;;;5035825;28;20435;-76
2022/03/23 03:52:25;;;;;;;193.55;73.75;;;2.50;99.90;;;;;;5034561;28;20088;-76
2022/03/23 03:54:51;;;;;;;184.23;69.60;;;2.50;99.90;;;;;;5034797;28;20065;-76
2022/03/23 03:57:17;;;;;;;173.13;69.82;;;2.50;99.90;;;;;;5020755;28;20130;-76
2022/03/23 03:59:42;;;;;;;211.07;78.10;;;2.40;99.90;;;;;;5015267;28;20073;-76
2022/03/23 04:02:08;;;;;;;220.70;84.45;;;2.40;99.90;;;;;;5016093;28;20074;-77
2022/03/23 04:04:34;;;;;;;227.35;89.78;;;2.60;99.90;;;;;;5015770;28;20089;-76
2022/03/23 04:06:59;;;;;;;229.13;86.45;;;2.90;99.90;;;;;;5015743;28;20064;-76
2022/03/23 04:09:25;;;;;;;221.85;86.57;;;3.10;99.90;;;;;;5016089;28;20400;-77
2022/03/23 04:11:50;;;;;;;214.98;83.25;;;3.30;99.90;;;;;;5015905;28;20057;-77
2022/03/23 04:14:17;;;;;;;245.20;88.30;;;3.30;99.90;;;;;;5015472;28;20266;-76
2022/03/23 04:16:43;;;;;;;250.63;93.63;;;3.30;99.90;;;;;;5015775;28;20189;-76
2022/03/23 04:19:09;;;;;;;267.27;97.40;;;3.40;99.90;;;;;;5015589;28;20085;-77
2022/03/23 04:21:35;;;;;;;238.45;89.70;;;3.40;99.90;;;;;;5015796;28;20493;-76
2022/03/23 04:24:00;;;;;;;252.48;90.35;;;3.40;99.90;;;;;;5021491;28;20503;-77
2022/03/23 04:26:26;;;;;;;255.70;93.05;;;3.40;99.90;;;;;;5035499;28;20091;-76
2022/03/23 04:28:52;;;;;;;268.80;100.22;;;3.40;99.90;;;;;;5034023;28;20052;-76
2022/03/23 04:31:17;;;;;;;282.50;106.18;;;3.30;99.90;;;;;;5035065;28;20033;-77
2022/03/23 04:33:44;;;;;;;252.93;97.00;;;3.30;99.90;;;;;;5030180;28;20046;-76
2022/03/23 04:36:11;;;;;;;245.50;90.25;;;3.40;99.90;;;;;;5014260;28;20046;-76
2022/03/23 04:38:37;;;;;;;256.33;93.72;;;3.40;99.90;;;;;;5015454;28;20045;-76
2022/03/23 04:41:04;;;;;;;273.08;99.20;;;3.30;99.90;;;;;;5015373;28;20081;-76
2022/03/23 04:43:32;;;;;;;295.60;103.35;;;3.30;99.90;;;;;;5016308;28;20045;-76
2022/03/23 04:45:58;;;;;;;280.00;102.05;;;3.20;99.90;;;;;;5034002;28;20074;-76
2022/03/23 04:48:24;;;;;;;303.83;104.82;;;3.30;99.90;;;;;;5034148;28;20504;-77
2022/03/23 04:50:49;;;;;;;282.13;102.63;;;3.50;99.90;;;;;;5033653;28;20045;-76
2022/03/23 04:53:16;;;;;;;301.50;106.47;;;3.50;99.90;;;;;;5035155;28;20041;-77
2022/03/23 04:55:42;;;;;;;295.75;104.88;;;3.50;99.90;;;;;;5014042;28;20133;-76
2022/03/23 04:58:08;;;;;;;308.10;110.20;;;3.40;99.90;;;;;;5015720;28;20093;-76
2022/03/23 05:00:34;;;;;;;298.75;106.30;;;3.30;99.90;;;;;;5015674;28;20050;-76
2022/03/23 05:03:01;;;;;;;318.42;113.65;;;3.30;99.90;;;;;;5015596;28;20038;-76
2022/03/23 05:05:26;;;;;;;290.20;107.35;;;3.30;99.90;;;;;;5035505;28;20050;-76
2022/03/23 05:07:52;;;;;;;321.02;113.28;;;3.30;99.90;;;;;;5035701;28;20110;-76
2022/03/23 05:10:18;;;;;;;301.30;105.97;;;3.20;99.90;;;;;;5035201;28;20522;-77
2022/03/23 05:12:45;;;;;;;293.65;107.60;;;3.60;99.90;;;;;;5035038;28;20041;-76
2022/03/23 05:15:12;;;;;;;321.30;110.93;;;3.10;99.90;;;;;;5032256;28;20041;-76
2022/03/23 05:17:38;;;;;;;315.33;113.18;;;3.10;99.90;;;;;;5034710;28;20048;-78
2022/03/23 05:20:05;;;;;;;300.25;104.70;;;3.20;99.90;;;;;;5034543;28;20579;-76
2022/03/23 05:22:32;;;;;;;259.38;89.25;;;3.30;99.90;;;;;;5034421;28;20041;-77
2022/03/23 05:24:58;;;;;;;279.40;93.97;;;3.20;99.90;;;;;;5033540;28;20073;-77
2022/03/23 05:27:24;;;;;;;290.75;102.68;;;3.10;99.90;;;;;;5033800;28;20400;-77
2022/03/23 05:29:50;;;;;;;304.88;108.15;;;3.00;99.90;;;;;;5033604;28;20041;-77
2022/03/23 05:32:16;;;;;;;304.73;106.18;;;2.90;99.90;;;;;;5035166;28;20060;-77
2022/03/23 05:34:49;;;;;;;314.33;108.70;;;3.00;99.90;;;;;;5033627;28;20050;-77
2022/03/23 05:37:16;;;;;;;332.77;109.03;;;2.90;99.90;;;;;;5034809;28;20069;-77
2022/03/23 05:39:43;;;;;;;334.85;116.30;;;2.90;99.90;;;;;;5036939;28;20412;-77
2022/03/23 05:42:09;;;;;;;326.83;108.90;;;2.90;99.90;;;;;;5037410;28;20056;-77
2022/03/23 05:44:35;;;;;;;337.83;116.25;;;2.90;99.90;;;;;;5036858;28;20046;-76
2022/03/23 05:47:01;;;;;;;347.33;111.43;;;3.00;99.90;;;;;;5035426;28;20052;-77
2022/03/23 05:49:27;;;;;;;319.63;110.05;;;2.90;99.90;;;;;;5034905;28;20072;-77
2022/03/23 05:51:52;;;;;;;264.83;100.95;;;2.90;99.90;;;;;;5031327;28;20472;-77
2022/03/23 05:54:20;;;;;;;295.90;98.03;;;2.80;99.90;;;;;;5030868;28;20199;-77
2022/03/23 05:56:45;;;;;;;257.80;93.63;;;2.80;99.90;;;;;;5031388;28;20046;-77
2022/03/23 05:59:11;;;;;;;270.52;95.82;;;2.70;99.90;;;;;;5032595;28;20061;-77
2022/03/23 06:01:36;;;;;;;250.07;93.32;;;2.70;99.90;;;;;;5031743;28;20403;-77
2022/03/23 06:04:02;;;;;;;280.95;98.65;;;2.80;99.90;;;;;;5028137;28;20041;-77
2022/03/23 06:06:28;;;;;;;297.52;99.25;;;2.90;99.90;;;;;;5013960;28;20506;-78
2022/03/23 06:08:53;;;;;;;247.32;88.70;;;3.00;99.90;;;;;;5032608;28;20053;-76
2022/03/23 06:11:19;;;;;;;249.90;91.43;;;3.10;99.90;;;;;;5030133;28;20038;-77
2022/03/23 06:13:45;;;;;;;264.98;92.97;;;3.20;99.90;;;;;;5012695;28;20433;-77
2022/03/23 06:16:11;;;;;;;310.17;100.35;;;3.30;99.90;;;;;;5014896;28;20507;-77
2022/03/23 06:18:37;;;;;;;325.35;101.95;;;3.30;99.90;;;;;;5014332;28;20109;-76
2022/03/23 06:21:03;;;;;;;336.38;109.07;;;3.30;99.90;;;;;;5014570;28;20132;-77
2022/03/23 06:23:30;;;;;;;328.55;106.28;;;3.40;99.90;;;;;;5014028;28;20046;-77
2022/03/23 06:25:55;;;;;;;333.98;107.25;;;3.50;99.90;;;;;;5014596;28;20432;-77
2022/03/23 06:28:23;;;;;;;335.05;105.03;;;3.60;99.90;;;;;;5018975;28;20034;-77
2022/03/23 06:30:49;;;;;;;314.90;108.88;;;3.70;99.90;;;;;;5018866;28;20045;-77
2022/03/23 06:33:15;;;;;;;303.38;106.75;;;3.80;99.90;;;;;;5019729;28;20046;-77
2022/03/23 06:35:41;;;;;;;312.58;107.47;;;3.90;99.90;;;;;;5018542;28;20046;-77
2022/03/23 06:38:07;;;;;;;313.65;110.30;;;4.10;99.90;;;;;;5019258;28;20054;-77
2022/03/23 06:40:34;;;;;;;312.88;109.13;;;4.20;99.90;;;;;;5019558;28;20102;-76
2022/03/23 06:42:59;;;;;;;318.63;110.47;;;4.40;99.90;;;;;;5020110;28;20038;-77
2022/03/23 06:45:25;;;;;;;316.35;113.72;;;4.60;99.90;;;;;;5018872;28;20056;-77
2022/03/23 06:47:51;;;;;;;330.77;115.22;;;4.70;99.90;;;;;;5019721;28;20100;-76
2022/03/23 06:50:17;;;;;;;326.45;113.25;;;4.90;99.90;;;;;;5018542;28;20092;-77
2022/03/23 06:52:42;;;;;;;301.52;113.40;;;5.00;99.90;;;;;;5018507;28;20108;-77
2022/03/23 06:55:08;;;;;;;317.92;115.53;;;5.10;99.90;;;;;;5020085;28;20041;-77
2022/03/23 06:57:34;;;;;;;298.48;114.28;;;5.30;99.90;;;;;;5019544;28;20048;-77
2022/03/23 07:00:01;;;;;;;302.85;113.63;;;5.50;99.90;;;;;;5019831;28;20041;-77
2022/03/23 07:02:27;;;;;;;294.33;115.38;;;5.60;99.90;;;;;;5019193;28;20054;-77
2022/03/23 07:04:52;;;;;;;292.67;115.30;;;5.70;99.90;;;;;;5020123;28;20049;-77
2022/03/23 07:07:20;;;;;;;277.77;113.47;;;5.90;99.90;;;;;;5025361;28;20048;-77
2022/03/23 07:09:46;;;;;;;276.60;111.80;;;6.00;99.90;;;;;;5038992;28;20045;-77
2022/03/23 07:12:12;;;;;;;258.38;108.07;;;6.00;99.90;;;;;;5038851;28;20045;-77
2022/03/23 07:14:39;;;;;;;233.90;104.50;;;6.10;99.90;;;;;;5038050;28;20407;-77
2022/03/23 07:17:06;;;;;;;227.38;99.18;;;6.20;99.90;;;;;;5039129;28;20037;-77
2022/03/23 07:19:32;;;;;;;202.38;93.60;;;6.30;99.90;;;;;;5037225;28;20049;-77
2022/03/23 07:21:58;;;;;;;188.68;90.03;;;6.40;99.90;;;;;;5020956;28;20049;-77
2022/03/23 07:24:24;;;;;;;171.63;83.85;;;6.40;99.90;;;;;;5037463;28;20037;-77
2022/03/23 07:26:50;;;;;;;157.82;78.95;;;6.50;99.90;;;;;;5038336;28;20377;-78
2022/03/23 07:29:16;;;;;;;141.38;73.57;;;6.60;99.90;;;;;;5038857;28;20083;-77
2022/03/23 07:31:42;;;;;;;119.93;63.35;;;6.80;99.90;;;;;;5038929;28;20159;-78
2022/03/23 07:34:07;;;;;;;101.20;56.85;;;6.90;99.90;;;;;;5038551;28;20422;-78
2022/03/23 07:36:33;;;;;;;126.60;59.15;;;7.00;99.90;;;;;;5038011;28;20045;-77
2022/03/23 07:38:59;;;;;;;99.45;56.63;;;7.10;99.90;;;;;;5019348;28;20041;-77
2022/03/23 07:41:25;;;;;;;80.38;45.90;;;7.20;99.90;;;;;;5034717;28;20472;-78
2022/03/23 07:43:51;;;;;;;65.03;38.45;;;7.30;99.90;;;;;;5036178;28;20057;-77
2022/03/23 07:46:20;;;;;;;60.00;34.70;;;7.30;99.90;;;;;;5037490;28;20049;-78
2022/03/23 07:48:45;;;;;;;67.28;34.28;;;7.50;99.90;;;;;;5016097;28;20042;-78
2022/03/23 07:51:11;;;;;;;68.32;33.03;;;7.70;99.90;;;;;;5017182;28;20048;-78
2022/03/23 07:53:36;;;;;;;56.58;35.47;;;7.70;99.90;;;;;;4999254;28;20381;-78
2022/03/23 07:56:02;;;;;;;50.63;32.00;;;7.90;99.90;;;;;;5016099;28;20484;-78
2022/03/23 07:58:29;;;;;;;55.83;31.83;;;7.90;99.90;;;;;;5022923;28;20476;-78
2022/03/23 08:00:55;;;;;;;52.70;30.08;;;7.60;99.90;;;;;;5035091;28;20083;-78
2022/03/23 08:03:21;;;;;;;50.55;31.45;;;8.10;99.90;;;;;;5036647;28;20430;-78
2022/03/23 08:05:47;;;;;;;50.65;31.67;;;8.30;99.90;;;;;;5036294;28;20033;-77
2022/03/23 08:08:13;;;;;;;49.35;29.40;;;8.50;99.90;;;;;;5017666;28;20128;-78
2022/03/23 08:10:41;;;;;;;49.25;27.48;;;8.70;99.90;;;;;;5035171;28;20124;-78
2022/03/23 08:13:09;;;;;;;43.45;26.52;;;8.80;99.90;;;;;;5036216;28;20050;-79
2022/03/23 08:15:36;;;;;;;44.83;27.35;;;9.00;99.90;;;;;;5035681;28;20496;-79
2022/03/23 08:18:02;;;;;;;48.55;27.95;;;9.20;99.90;;;;;;5036353;28;20041;-79
2022/03/23 08:20:35;;;;;;;44.55;28.23;;;9.90;99.90;;;;;;5036181;28;20443;-78
2022/03/23 08:23:06;;;;;;;43.05;27.20;;;9.50;99.90;;;;;;5036075;28;20548;-79
2022/03/23 08:25:33;;;;;;;46.50;27.58;;;10.20;99.90;;;;;;5034310;28;20052;-79
2022/03/23 08:28:14;;;;;;;43.63;27.10;;;9.90;99.90;;;;;;5030587;28;20037;-77
2022/03/23 08:30:43;;;;;;;40.72;26.52;;;10.10;99.90;;;;;;5006205;28;20049;-78
2022/03/23 08:33:09;;;;;;;49.05;28.52;;;10.30;99.90;;;;;;5011374;28;20497;-79
2022/03/23 08:35:36;;;;;;;45.25;27.83;;;10.40;99.90;;;;;;5028966;28;20056;-78
2022/03/23 08:38:01;;;;;;;38.97;22.13;;;10.70;99.90;;;;;;5031163;28;20491;-78
2022/03/23 08:40:28;;;;;;;36.85;23.42;;;11.00;99.90;;;;;;5031582;28;20049;-78
2022/03/23 08:42:55;;;;;;;37.65;23.00;;;11.20;99.90;;;;;;5031583;28;20780;-78
2022/03/23 08:45:21;;;;;;;37.55;22.20;;;11.40;99.90;;;;;;5030963;28;20085;-78
2022/03/23 08:47:49;;;;;;;37.63;21.98;;;11.50;99.90;;;;;;5030925;28;20444;-78
2022/03/23 08:50:15;;;;;;;38.78;22.50;;;11.60;99.90;;;;;;5031503;28;20176;-78
2022/03/23 08:52:41;;;;;;;36.08;23.25;;;11.80;99.90;;;;;;5032033;28;20048;-79
2022/03/23 08:55:10;;;;;;;36.90;21.23;;;12.00;99.90;;;;;;5031584;28;20045;-78
2022/03/23 08:57:39;;;;;;;37.15;22.00;;;12.10;99.90;;;;;;5030439;28;20096;-78
2022/03/23 09:00:06;;;;;;;39.08;22.25;;;12.60;96.40;;;;;;5031893;28;20111;-78
2022/03/23 09:02:32;;;;;;;37.67;21.83;;;13.30;96.60;;;;;;5031980;28;20045;-79
2022/03/23 09:04:57;;;;;;;30.27;20.73;;;14.00;87.00;;;;;;5031146;28;20376;-79
2022/03/23 09:07:23;;;;;;;36.00;21.10;;;14.70;93.40;;;;;;5029612;28;20124;-79
2022/03/23 09:09:48;;;;;;;32.45;19.50;;;15.30;95.30;;;;;;5029094;28;20046;-78
2022/03/23 09:12:14;;;;;;;30.02;19.92;;;15.80;58.20;;;;;;5029556;28;20041;-79
2022/03/23 09:14:40;;;;;;;30.88;20.63;;;16.20;61.10;;;;;;5029348;28;20090;-79
2022/03/23 09:17:06;;;;;;;30.70;19.63;;;16.30;55.70;;;;;;5029616;28;20037;-79
2022/03/23 09:19:31;;;;;;;28.20;18.73;;;16.60;57.40;;;;;;5030505;28;20041;-79
2022/03/23 09:21:59;;;;;;;27.75;19.55;;;16.70;38.90;;;;;;5030899;28;20027;-78
2022/03/23 09:24:28;;;;;;;32.55;20.33;;;16.80;47.70;;;;;;5029337;28;20049;-80
2022/03/23 09:26:54;;;;;;;33.70;21.23;;;16.80;32.50;;;;;;5027989;28;20033;-79
2022/03/23 09:29:20;;;;;;;34.80;22.48;;;16.60;38.90;;;;;;5030709;28;20053;-79
2022/03/23 09:31:46;;;;;;;29.23;21.27;;;16.60;36.70;;;;;;5030493;28;20037;-79
2022/03/23 09:34:11;;;;;;;33.78;21.55;;;17.00;49.10;;;;;;5029569;28;20111;-79
2022/03/23 09:39:21;;;;;;;31.00;21.45;;;17.50;34.70;;;;;;5030261;28;20053;-80
2022/03/23 09:41:48;;;;;;;28.83;18.10;;;17.00;36.20;;;;;;5029874;28;20038;-80
2022/03/23 09:44:15;;;;;;;26.50;19.13;;;17.00;31.90;;;;;;5030400;28;20054;-79
2022/03/23 09:46:41;;;;;;;31.98;20.20;;;16.90;27.20;;;;;;5029438;28;20053;-79
2022/03/23 09:49:07;;;;;;;28.88;19.33;;;16.90;32.60;;;;;;5028677;28;20045;-79
2022/03/23 09:51:34;;;;;;;30.15;19.40;;;16.90;32.90;;;;;;5028937;28;20042;-80
2022/03/23 09:54:01;;;;;;;33.10;18.50;;;17.30;33.50;;;;;;5029239;28;20040;-80
2022/03/23 09:56:27;;;;;;;24.17;18.27;;;17.50;35.40;;;;;;5029495;28;20076;-80
2022/03/23 09:58:53;;;;;;;29.58;19.45;;;17.40;27.80;;;;;;5030044;28;20076;-80
2022/03/23 10:01:28;;;;;;;28.50;19.02;;;17.50;31.60;;;;;;5031121;28;20049;-80
2022/03/23 10:04:12;;;;;;;22.95;17.30;;;17.40;29.50;;;;;;5034285;28;20041;-79
2022/03/23 10:06:48;;;;;;;22.60;15.38;;;17.40;24.10;;;;;;5034826;28;20045;-79
2022/03/23 10:09:26;;;;;;;22.33;15.50;;;17.40;23.70;;;;;;5033211;28;20050;-79
2022/03/23 10:12:29;;;;;;;21.98;15.02;;;17.50;21.90;;;;;;5034049;28;20046;-79
2022/03/23 10:15:32;;;;;;;20.50;15.05;;;17.30;18.30;;;;;;5033653;28;20095;-80
2022/03/23 10:18:15;;;;;;;21.10;15.20;;;17.20;17.80;;;;;;5033333;28;20052;-80
2022/03/23 10:20:41;;;;;;;20.90;14.30;;;17.40;20.40;;;;;;5033209;28;20053;-81
2022/03/23 10:23:06;;;;;;;24.17;15.80;;;17.50;18.10;;;;;;5035120;28;20051;-80
2022/03/23 10:25:32;;;;;;;22.20;14.15;;;17.70;19.70;;;;;;5033434;28;20492;-79
2022/03/23 10:27:58;;;;;;;16.52;12.43;;;17.70;20.20;;;;;;5034487;28;20049;-81
2022/03/23 10:30:37;;;;;;;13.35;11.32;;;18.10;16.90;;;;;;5032838;28;20037;-81
2022/03/23 10:33:04;;;;;;;15.93;12.15;;;18.00;11.00;;;;;;5029082;28;20037;-80
2022/03/23 10:35:38;;;;;;;18.58;12.80;;;18.00;11.30;;;;;;5017040;28;20041;-80
2022/03/23 10:38:20;;;;;;;17.27;11.88;;;17.90;10.20;;;;;;5033870;28;20076;-80
2022/03/23 10:40:50;;;;;;;14.38;11.05;;;17.80;10.20;;;;;;5016750;28;20052;-80
2022/03/23 10:43:21;;;;;;;17.35;12.25;;;17.80;9.70;;;;;;5017216;28;20041;-80
2022/03/23 10:45:47;;;;;;;18.20;11.93;;;18.10;11.70;;;;;;5016668;28;20049;-80
2022/03/23 10:48:17;;;;;;;15.32;12.18;;;18.30;10.80;;;;;;5017379;28;20065;-80
2022/03/23 10:50:56;;;;;;;22.85;12.07;;;18.60;14.20;;;;;;5034884;28;20549;-80
2022/03/23 10:53:33;;;;;;;16.60;12.07;;;18.90;14.40;;;;;;5035062;28;20396;-80
2022/03/23 10:56:00;;;;;;;18.10;12.13;;;19.20;10.10;;;;;;5031900;28;20056;-78
2022/03/23 10:58:26;;;;;;;17.23;12.05;;;19.30;10.90;;;;;;5033857;28;20077;-78
2022/03/23 11:01:06;;;;;;;19.00;12.45;;;19.20;11.50;;;;;;5035535;28;20049;-78
2022/03/23 11:03:40;;;;;;;20.40;13.65;;;19.10;9.40;;;;;;5034354;28;20113;-78
2022/03/23 11:06:09;;;;;;;20.48;13.38;;;19.70;11.50;;;;;;5038216;28;20060;-79
2022/03/23 11:08:34;;;;;;;21.88;13.85;;;19.40;11.10;;;;;;5029298;28;20041;-75
2022/03/23 11:16:50;;;;;;;25.38;12.95;;;19.50;8.50;;;;;;5034187;28;20052;-78
2022/03/23 11:19:23;;;;;;;20.75;13.52;;;19.70;9.90;;;;;;5037802;28;20057;-79
2022/03/23 11:22:15;;;;;;;23.05;12.65;;;19.30;10.00;;;;;;5005322;28;20052;-78
2022/03/23 11:24:46;;;;;;;24.00;12.70;;;19.50;9.30;;;;;;5037094;28;20041;-79
2022/03/23 11:27:17;;;;;;;17.25;11.18;;;19.80;8.50;;;;;;5039003;28;20060;-79
2022/03/23 11:29:43;;;;;;;25.35;12.40;;;20.00;9.70;;;;;;5024424;28;20722;-79
2022/03/23 11:32:15;;;;;;;16.42;11.00;;;19.90;8.50;;;;;;5041389;28;20435;-79
2022/03/23 11:34:45;;;;;;;20.60;11.65;;;20.00;9.30;;;;;;5041102;28;20124;-78
2022/03/23 11:37:12;;;;;;;17.42;11.20;;;19.90;9.60;;;;;;5023679;28;20038;-79
2022/03/23 11:39:41;;;;;;;16.55;10.63;;;19.90;8.80;;;;;;5041178;28;20042;-79
2022/03/23 11:42:07;;;;;;;22.38;11.18;;;20.00;8.90;;;;;;5042108;28;20575;-79
2022/03/23 11:44:36;;;;;;;19.33;10.93;;;19.80;8.00;;;;;;5043974;28;20041;-79
2022/03/23 11:47:15;;;;;;;27.20;10.88;;;20.10;9.90;;;;;;5047417;28;20033;-79
2022/03/23 11:49:55;;;;;;;14.50;9.05;;;20.40;9.30;;;;;;5027607;28;20098;-79
2022/03/23 11:52:33;;;;;;;22.77;9.43;;;20.00;6.90;;;;;;5021378;28;20045;-79
2022/03/23 11:58:04;;;;;;;24.55;10.23;;;19.70;6.60;;;;;;5040490;28;20081;-79
2022/03/23 12:00:39;;;;;;;24.80;9.13;;;20.40;8.00;;;;;;5027185;28;20057;-79
2022/03/23 12:03:05;;;;;;;18.67;9.60;;;19.70;7.10;;;;;;5034659;28;20057;-79
2022/03/23 12:05:35;;;;;;;21.55;9.32;;;19.70;7.20;;;;;;5045076;28;20084;-79
2022/03/23 12:08:01;;;;;;;33.88;10.23;;;19.80;7.20;;;;;;5043125;28;20056;-79
2022/03/23 12:10:31;;;;;;;21.73;8.20;;;19.80;7.00;;;;;;5044553;28;20055;-79
2022/03/23 12:12:57;;;;;;;22.08;8.38;;;20.00;6.80;;;;;;5029576;28;20065;-79
2022/03/23 12:15:28;;;;;;;18.50;10.00;;;20.20;6.90;;;;;;5025912;28;20495;-79
2022/03/23 12:17:56;;;;;;;15.20;9.73;;;20.10;6.90;;;;;;5045047;28;20050;-80
2022/03/23 12:20:39;;;;;;;23.88;9.07;;;20.80;8.00;;;;;;5029003;28;20278;-79
2022/03/23 12:23:14;;;;;;;20.23;8.57;;;20.60;6.40;;;;;;5044482;28;20101;-80
2022/03/23 12:25:56;;;;;;;23.80;7.30;;;20.50;6.20;;;;;;5047626;28;20105;-80
2022/03/23 12:28:35;;;;;;;23.98;8.45;;;21.10;9.90;;;;;;5048742;28;20105;-80
2022/03/23 12:31:05;;;;;;;22.13;7.82;;;20.90;7.80;;;;;;5049008;28;20041;-81
2022/03/23 12:33:31;;;;;;;23.73;7.22;;;21.30;8.20;;;;;;5043134;28;20049;-79
2022/03/23 12:36:04;;;;;;;22.90;6.97;;;20.60;5.90;;;;;;5023844;28;20400;-80
2022/03/23 12:38:30;;;;;;;24.00;8.20;;;20.40;7.50;;;;;;5042170;28;20478;-80
2022/03/23 12:41:04;;;;;;;25.15;8.05;;;20.90;7.40;;;;;;5045881;28;20042;-83
2022/03/23 12:43:39;;;;;;;23.95;8.45;;;20.70;8.20;;;;;;5048103;28;20033;-80
2022/03/23 12:46:18;;;;;;;24.00;9.03;;;21.00;6.20;;;;;;5048950;28;20046;-81
2022/03/23 12:58:13;;;;;;;29.08;7.25;;;20.80;10.10;;;;;;5054411;28;20073;-79
2022/03/23 13:00:48;;;;;;;21.75;6.10;;;21.20;7.80;;;;;;5036940;28;20046;-80
2022/03/23 13:03:19;;;;;;;17.93;6.93;;;21.30;5.40;;;;;;5052436;28;20045;-80